createdAt,value
2022-08-03T00:00:08.815Z,20.94
2022-08-03T00:10:15.497Z,20.91
2022-08-03T00:20:18.495Z,20.85
2022-08-03T00:30:21.612Z,20.82
2022-08-03T00:40:24.624Z,20.73
2022-08-03T00:50:29.476Z,20.79
2022-08-03T01:00:36.055Z,20.63
2022-08-03T01:10:50.193Z,20.58
2022-08-03T01:20:56.687Z,20.18
2022-08-03T01:31:08.334Z,20.06
2022-08-03T01:41:19.258Z,19.72
2022-08-03T01:51:24.462Z,19.58
2022-08-03T02:02:27.910Z,19.30
2022-08-03T02:12:17.218Z,19.41
2022-08-03T02:22:23.412Z,19.68
2022-08-03T02:32:37.169Z,19.90
2022-08-03T02:42:44.834Z,19.74
2022-08-03T02:52:51.497Z,19.58
2022-08-03T03:03:02.062Z,19.50
2022-08-03T03:13:07.664Z,19.62
2022-08-03T03:23:11.718Z,19.71
2022-08-03T03:33:15.303Z,19.82
2022-08-03T03:44:27.917Z,19.63
2022-08-03T03:54:43.786Z,19.76
2022-08-03T04:05:05.468Z,19.88
2022-08-03T04:15:09.842Z,20.26
2022-08-03T04:25:18.293Z,20.51
2022-08-03T04:35:23.540Z,20.90
2022-08-03T04:45:47.973Z,21.27
2022-08-03T04:55:51.159Z,21.67
2022-08-03T05:06:09.822Z,22.00
2022-08-03T05:16:15.399Z,22.51
2022-08-03T05:26:18.377Z,22.04
2022-08-03T05:48:12.264Z,22.99
2022-08-03T05:58:15.284Z,23.62
2022-08-03T06:08:19.399Z,24.38
2022-08-03T06:18:23.368Z,24.57
2022-08-03T06:38:49.300Z,25.71
2022-08-03T06:48:52.540Z,26.03
2022-08-03T06:58:55.628Z,26.17
2022-08-03T07:08:59.858Z,26.71
2022-08-03T07:19:03.080Z,26.80
2022-08-03T07:29:11.470Z,27.57
2022-08-03T07:39:18.474Z,27.98
2022-08-03T07:49:21.472Z,29.09
2022-08-03T07:59:24.816Z,29.07
2022-08-03T08:09:27.887Z,29.59
2022-08-03T08:19:32.029Z,29.94
2022-08-03T08:29:55.354Z,30.44
2022-08-03T08:40:00.148Z,30.65
2022-08-03T08:50:10.243Z,30.88
2022-08-03T09:00:26.969Z,30.94
2022-08-03T09:10:30.014Z,31.81
2022-08-03T09:20:34.830Z,31.71
2022-08-03T09:30:43.021Z,32.68
2022-08-03T09:40:46.823Z,32.92
2022-08-03T09:52:11.037Z,33.36
2022-08-03T10:01:33.825Z,33.21
2022-08-03T10:11:41.735Z,33.96
2022-08-03T10:21:54.310Z,33.70
2022-08-03T10:31:59.084Z,33.63
2022-08-03T10:42:03.733Z,33.91
2022-08-03T10:52:13.673Z,34.61
2022-08-03T11:03:06.388Z,34.56
2022-08-03T11:13:11.079Z,35.01
2022-08-03T11:24:05.649Z,35.20
2022-08-03T11:34:09.618Z,34.54
2022-08-03T11:44:41.479Z,35.01
2022-08-03T11:54:56.626Z,35.25
2022-08-03T12:05:01.647Z,34.75
2022-08-03T12:15:05.972Z,35.13
2022-08-03T12:25:39.038Z,35.28
2022-08-03T12:35:52.248Z,35.57
2022-08-03T12:46:08.321Z,34.84
2022-08-03T12:56:11.763Z,34.67
2022-08-03T13:06:17.249Z,34.47
2022-08-03T13:16:23.378Z,34.93
2022-08-03T13:26:26.314Z,34.52
2022-08-03T13:36:30.017Z,34.40
2022-08-03T13:46:46.950Z,34.11
2022-08-03T13:56:53.026Z,33.84
2022-08-03T14:06:56.208Z,32.85
2022-08-03T14:16:59.453Z,32.06
2022-08-03T14:27:09.013Z,32.27
2022-08-03T14:37:19.709Z,32.42
2022-08-03T14:47:22.976Z,32.32
2022-08-03T14:57:28.396Z,32.12
2022-08-03T15:07:32.869Z,32.10
2022-08-03T15:17:36.268Z,32.10
2022-08-03T15:28:04.184Z,31.79
2022-08-03T15:38:09.981Z,31.66
2022-08-03T15:48:13.049Z,31.47
2022-08-03T15:59:03.156Z,31.42
2022-08-03T16:08:39.024Z,31.46
2022-08-03T16:18:42.715Z,31.43
2022-08-03T16:28:45.671Z,31.39
2022-08-03T16:38:48.781Z,31.06
2022-08-03T16:48:52.136Z,30.93
2022-08-03T16:58:55.049Z,30.79
2022-08-03T17:08:59.711Z,30.39
2022-08-03T17:19:05.674Z,29.94
2022-08-03T17:29:12.768Z,29.59
2022-08-03T17:39:23.565Z,29.31
2022-08-03T17:49:39.980Z,28.89
2022-08-03T18:00:24.138Z,28.31
2022-08-03T18:10:34.109Z,27.87
2022-08-03T18:20:41.599Z,27.40
2022-08-03T18:30:53.358Z,27.29
2022-08-03T18:40:57.773Z,26.81
2022-08-03T18:51:28.590Z,26.37
2022-08-03T19:01:58.591Z,26.50
2022-08-03T19:12:30.708Z,26.46
2022-08-03T19:22:37.309Z,26.39
2022-08-03T19:32:41.811Z,26.17
2022-08-03T19:42:58.500Z,25.99
2022-08-03T19:53:10.215Z,25.82
2022-08-03T20:03:21.740Z,25.62
2022-08-03T20:13:28.368Z,25.47
2022-08-03T20:23:37.258Z,25.27
2022-08-03T20:33:46.187Z,25.02
2022-08-03T20:43:52.246Z,24.86
2022-08-03T20:53:59.854Z,24.67
2022-08-03T21:04:09.267Z,24.51
2022-08-03T21:14:20.244Z,24.40
2022-08-03T21:24:27.177Z,24.37
2022-08-03T21:34:30.779Z,24.24
2022-08-03T21:44:33.751Z,24.14
2022-08-03T21:54:41.057Z,24.08
2022-08-03T22:04:53.332Z,23.95
2022-08-03T22:15:02.159Z,23.86
2022-08-03T22:25:10.644Z,23.75
2022-08-03T22:35:14.547Z,23.66
2022-08-03T22:46:05.992Z,23.59
2022-08-03T22:55:40.918Z,23.53
2022-08-03T23:06:01.154Z,23.40
2022-08-03T23:16:06.988Z,23.36
2022-08-03T23:26:09.909Z,23.23
2022-08-03T23:36:31.227Z,23.17
2022-08-03T23:46:37.391Z,23.07
2022-08-03T23:56:54.035Z,22.91
